createdAt,value
2023-04-09T00:01:42.952Z,9.73
2023-04-09T00:04:10.301Z,10.30
2023-04-09T00:06:37.498Z,10.02
2023-04-09T00:09:04.643Z,9.90
2023-04-09T00:11:31.958Z,9.95
2023-04-09T00:14:00.551Z,10.52
2023-04-09T00:16:27.849Z,9.55
2023-04-09T00:18:55.136Z,9.43
2023-04-09T00:21:22.536Z,9.80
2023-04-09T00:23:49.678Z,11.45
2023-04-09T00:26:16.874Z,10.57
2023-04-09T00:28:44.764Z,10.10
2023-04-09T00:31:13.444Z,11.23
2023-04-09T00:33:40.697Z,9.60
2023-04-09T00:36:08.128Z,11.07
2023-04-09T00:38:35.345Z,10.43
2023-04-09T00:41:02.543Z,9.20
2023-04-09T00:43:30.052Z,9.95
2023-04-09T00:45:58.557Z,11.23
2023-04-09T00:48:27.766Z,10.85
2023-04-09T00:50:55.103Z,11.07
2023-04-09T00:53:22.393Z,11.27
2023-04-09T00:55:49.660Z,11.00
2023-04-09T00:58:17.048Z,11.55
2023-04-09T01:00:44.470Z,11.82
2023-04-09T01:03:12.439Z,11.40
2023-04-09T01:05:50.168Z,11.57
2023-04-09T01:08:29.983Z,11.38
2023-04-09T01:11:06.384Z,11.23
2023-04-09T01:13:42.395Z,9.55
2023-04-09T01:16:12.416Z,10.40
2023-04-09T01:18:49.066Z,11.50
2023-04-09T01:21:20.721Z,10.77
2023-04-09T01:23:57.920Z,10.65
2023-04-09T01:26:45.505Z,9.90
2023-04-09T01:29:17.402Z,9.45
2023-04-09T01:31:45.833Z,10.23
2023-04-09T01:34:14.998Z,9.98
2023-04-09T01:36:47.542Z,9.98
2023-04-09T01:39:14.974Z,9.82
2023-04-09T01:41:43.024Z,10.88
2023-04-09T01:44:12.347Z,12.15
2023-04-09T01:46:41.630Z,11.20
2023-04-09T01:49:10.763Z,9.93
2023-04-09T01:51:38.434Z,11.05
2023-04-09T01:54:05.684Z,9.52
2023-04-09T01:56:40.659Z,9.68
2023-04-09T01:59:07.898Z,10.15
2023-04-09T02:01:41.410Z,10.68
2023-04-09T02:04:17.615Z,11.32
2023-04-09T02:06:52.583Z,10.38
2023-04-09T02:09:21.269Z,10.75
2023-04-09T02:11:49.941Z,11.13
2023-04-09T02:14:18.872Z,10.18
2023-04-09T02:16:48.655Z,11.35
2023-04-09T02:19:17.212Z,11.05
2023-04-09T02:21:44.551Z,10.65
2023-04-09T02:24:11.760Z,9.32
2023-04-09T02:26:39.029Z,11.65
2023-04-09T02:29:06.198Z,11.27
2023-04-09T02:31:33.483Z,11.30
2023-04-09T02:34:00.821Z,11.18
2023-04-09T02:36:29.363Z,11.10
2023-04-09T02:38:56.514Z,10.65
2023-04-09T02:41:23.884Z,10.98
2023-04-09T02:43:51.143Z,11.50
2023-04-09T02:46:18.453Z,11.00
2023-04-09T02:48:45.684Z,11.32
2023-04-09T02:51:12.888Z,12.45
2023-04-09T02:53:41.488Z,12.40
2023-04-09T02:56:08.818Z,11.80
2023-04-09T02:58:35.986Z,10.70
2023-04-09T03:01:03.270Z,11.70
2023-04-09T03:03:30.509Z,11.48
2023-04-09T03:05:57.812Z,11.65
2023-04-09T03:08:25.076Z,12.48
2023-04-09T03:10:53.597Z,12.35
2023-04-09T03:13:20.773Z,12.75
2023-04-09T03:15:51.568Z,12.25
2023-04-09T03:18:19.209Z,11.48
2023-04-09T03:20:46.775Z,13.18
2023-04-09T03:23:15.776Z,12.82
2023-04-09T03:25:46.719Z,13.10
2023-04-09T03:28:19.691Z,11.52
2023-04-09T03:30:51.503Z,12.60
2023-04-09T03:33:19.329Z,11.80
2023-04-09T03:35:58.441Z,11.90
2023-04-09T03:38:35.992Z,13.40
2023-04-09T03:41:08.952Z,12.57
2023-04-09T03:43:37.553Z,13.07
2023-04-09T03:46:12.168Z,13.60
2023-04-09T03:48:39.686Z,12.65
2023-04-09T03:51:07.146Z,13.27
2023-04-09T03:53:39.014Z,11.57
2023-04-09T03:56:08.235Z,12.95
2023-04-09T03:58:37.778Z,12.65
2023-04-09T04:01:05.506Z,11.50
2023-04-09T04:03:55.894Z,11.95
2023-04-09T04:06:25.292Z,11.32
2023-04-09T04:09:09.283Z,12.13
2023-04-09T04:11:43.955Z,11.23
2023-04-09T04:14:13.428Z,13.15
2023-04-09T04:16:43.310Z,12.25
2023-04-09T04:19:12.226Z,12.40
2023-04-09T04:21:45.128Z,12.65
2023-04-09T04:24:12.435Z,12.38
2023-04-09T04:26:41.130Z,12.88
2023-04-09T04:29:09.618Z,13.05
2023-04-09T04:31:49.202Z,12.30
2023-04-09T04:34:19.786Z,13.43
2023-04-09T04:36:52.661Z,14.93
2023-04-09T04:39:20.490Z,14.95
2023-04-09T04:41:53.374Z,13.73
2023-04-09T04:44:24.057Z,12.93
2023-04-09T04:46:58.783Z,12.30
2023-04-09T04:49:25.997Z,11.98
2023-04-09T04:51:53.221Z,11.55
2023-04-09T04:54:20.398Z,12.15
2023-04-09T04:56:51.832Z,13.07
2023-04-09T04:59:40.297Z,12.18
2023-04-09T05:02:11.580Z,13.13
2023-04-09T05:04:56.439Z,12.82
2023-04-09T05:07:33.178Z,12.55
2023-04-09T05:10:00.435Z,12.95
2023-04-09T05:12:32.893Z,13.27
2023-04-09T05:15:01.364Z,13.90
2023-04-09T05:17:30.038Z,12.25
2023-04-09T05:19:57.466Z,13.00
2023-04-09T05:22:32.756Z,13.38
2023-04-09T05:25:00.262Z,12.65
2023-04-09T05:27:27.726Z,12.38
2023-04-09T05:30:01.045Z,13.35
2023-04-09T05:32:29.918Z,12.85
2023-04-09T05:34:58.062Z,14.98
2023-04-09T05:37:27.223Z,15.35
2023-04-09T05:39:54.854Z,16.67
2023-04-09T05:42:22.046Z,17.83
2023-04-09T05:45:12.010Z,16.88
2023-04-09T05:47:48.322Z,14.75
2023-04-09T05:50:19.597Z,14.20
2023-04-09T05:52:47.671Z,13.07
2023-04-09T05:55:15.742Z,14.73
2023-04-09T05:57:54.525Z,13.40
2023-04-09T06:00:21.905Z,14.68
2023-04-09T06:02:51.755Z,13.70
2023-04-09T06:05:18.987Z,14.75
2023-04-09T06:07:47.883Z,14.80
2023-04-09T06:10:15.042Z,13.60
2023-04-09T06:12:42.259Z,12.90
2023-04-09T06:15:10.722Z,13.77
2023-04-09T06:17:38.022Z,13.93
2023-04-09T06:20:07.776Z,12.70
2023-04-09T06:22:35.003Z,13.48
2023-04-09T06:25:02.239Z,14.27
2023-04-09T06:27:29.488Z,14.38
2023-04-09T06:29:56.645Z,13.82
2023-04-09T06:32:23.839Z,13.85
2023-04-09T06:34:51.056Z,15.32
2023-04-09T06:37:19.627Z,13.98
2023-04-09T06:39:59.901Z,14.57
2023-04-09T06:42:28.013Z,15.13
2023-04-09T06:45:08.196Z,15.70
2023-04-09T06:47:35.474Z,16.02
2023-04-09T06:50:03.098Z,15.18
2023-04-09T06:52:31.653Z,17.45
2023-04-09T06:54:58.888Z,20.42
2023-04-09T06:57:26.291Z,13.95
2023-04-09T06:59:53.514Z,21.27
2023-04-09T07:02:20.807Z,18.92
2023-04-09T07:04:48.122Z,16.20
2023-04-09T07:07:15.454Z,16.35
2023-04-09T07:09:44.560Z,14.77
2023-04-09T07:12:11.862Z,13.55
2023-04-09T07:14:39.036Z,15.18
2023-04-09T07:17:06.193Z,16.15
2023-04-09T07:19:33.397Z,15.73
2023-04-09T07:22:00.562Z,15.88
2023-04-09T07:24:27.832Z,15.60
2023-04-09T07:26:56.350Z,17.52
2023-04-09T07:29:23.472Z,16.45
2023-04-09T07:31:50.731Z,15.68
2023-04-09T07:34:17.966Z,16.40
2023-04-09T07:36:45.165Z,15.07
2023-04-09T07:39:12.450Z,16.30
2023-04-09T07:41:39.776Z,15.57
2023-04-09T07:44:08.342Z,15.23
2023-04-09T07:46:35.533Z,15.00
2023-04-09T07:49:02.828Z,15.60
2023-04-09T07:51:31.175Z,14.90
2023-04-09T07:53:58.392Z,14.38
2023-04-09T07:56:25.624Z,14.57
2023-04-09T07:58:53.234Z,15.02
2023-04-09T08:01:22.294Z,15.38
2023-04-09T08:03:49.784Z,15.05
2023-04-09T08:06:17.226Z,12.50
2023-04-09T08:08:44.409Z,13.23
2023-04-09T08:11:11.596Z,15.43
2023-04-09T08:13:38.919Z,13.82
2023-04-09T08:16:06.138Z,12.93
2023-04-09T08:18:34.675Z,12.88
2023-04-09T08:21:04.844Z,12.27
2023-04-09T08:23:32.004Z,11.63
2023-04-09T08:25:59.225Z,12.25
2023-04-09T08:28:26.413Z,12.95
2023-04-09T08:30:53.597Z,11.73
2023-04-09T08:33:20.782Z,12.20
2023-04-09T08:35:49.383Z,12.40
2023-04-09T08:38:16.557Z,12.27
2023-04-09T08:40:43.767Z,11.93
2023-04-09T08:43:15.349Z,13.00
2023-04-09T08:45:43.119Z,11.85
2023-04-09T08:48:13.147Z,12.23
2023-04-09T08:50:40.595Z,11.82
2023-04-09T08:53:10.951Z,12.00
2023-04-09T08:55:38.395Z,12.48
2023-04-09T08:58:06.206Z,11.90
2023-04-09T09:00:33.515Z,11.27
2023-04-09T09:03:06.000Z,10.98
2023-04-09T09:05:37.658Z,10.75
2023-04-09T09:08:05.494Z,11.20
2023-04-09T09:10:39.872Z,11.23
2023-04-09T09:13:17.648Z,11.48
2023-04-09T09:15:45.369Z,10.88
2023-04-09T09:18:12.581Z,11.02
2023-04-09T09:20:39.775Z,11.15
2023-04-09T09:23:07.043Z,12.18
2023-04-09T09:25:39.499Z,13.77
2023-04-09T09:28:08.368Z,11.05
2023-04-09T09:30:39.252Z,11.00
2023-04-09T09:33:08.539Z,11.00
2023-04-09T09:35:49.436Z,10.65
2023-04-09T09:38:17.282Z,10.95
2023-04-09T09:40:46.128Z,9.27
2023-04-09T09:43:14.636Z,9.68
2023-04-09T09:45:42.346Z,9.77
2023-04-09T09:48:11.202Z,9.32
2023-04-09T09:50:39.616Z,9.20
2023-04-09T09:53:08.266Z,8.98
2023-04-09T09:55:39.513Z,8.75
2023-04-09T09:58:16.901Z,9.57
2023-04-09T10:00:46.917Z,8.35
2023-04-09T10:03:19.800Z,8.50
2023-04-09T10:05:49.153Z,8.73
2023-04-09T10:08:16.735Z,8.85
2023-04-09T10:10:44.673Z,9.25
2023-04-09T10:13:16.372Z,8.80
2023-04-09T10:18:11.552Z,8.00
2023-04-09T10:20:43.649Z,8.00
2023-04-09T10:23:19.645Z,6.97
2023-04-09T10:25:46.968Z,7.13
2023-04-09T10:28:18.338Z,6.75
2023-04-09T10:30:45.744Z,6.55
2023-04-09T10:33:14.735Z,7.03
2023-04-09T10:35:42.301Z,6.65
2023-04-09T10:38:10.292Z,7.05
2023-04-09T10:40:41.847Z,5.95
2023-04-09T10:43:09.869Z,6.30
2023-04-09T10:45:42.653Z,6.82
2023-04-09T10:48:13.056Z,7.38
2023-04-09T10:50:43.474Z,6.85
2023-04-09T10:53:22.279Z,6.78
2023-04-09T10:55:50.740Z,6.63
2023-04-09T10:58:18.085Z,6.68
2023-04-09T11:00:47.844Z,6.45
2023-04-09T11:03:26.637Z,6.18
2023-04-09T11:06:03.796Z,6.60
2023-04-09T11:08:32.638Z,7.13
2023-04-09T11:11:00.577Z,7.53
2023-04-09T11:13:31.834Z,7.27
2023-04-09T11:16:00.653Z,7.22
2023-04-09T11:18:29.174Z,7.20
2023-04-09T11:20:57.861Z,6.50
2023-04-09T11:23:25.668Z,7.50
2023-04-09T11:25:53.894Z,7.25
2023-04-09T11:28:21.625Z,8.15
2023-04-09T11:30:50.854Z,6.68
2023-04-09T11:33:20.323Z,6.93
2023-04-09T11:35:48.124Z,6.43
2023-04-09T11:38:15.475Z,6.50
2023-04-09T11:40:43.910Z,6.68
2023-04-09T11:43:14.166Z,6.72
2023-04-09T11:45:42.017Z,7.00
2023-04-09T11:48:09.443Z,6.63
2023-04-09T11:50:41.214Z,6.88
2023-04-09T11:53:19.060Z,7.13
2023-04-09T11:55:49.452Z,6.25
2023-04-09T11:58:16.835Z,6.18
2023-04-09T12:00:44.330Z,6.68
2023-04-09T12:03:11.969Z,6.47
2023-04-09T12:05:49.644Z,6.20
2023-04-09T12:08:23.374Z,6.57
2023-04-09T12:10:53.066Z,6.60
2023-04-09T12:13:21.436Z,6.22
2023-04-09T12:15:50.013Z,6.78
2023-04-09T12:18:17.617Z,6.45
2023-04-09T12:20:47.243Z,7.75
2023-04-09T12:23:15.870Z,6.57
2023-04-09T12:25:44.511Z,7.32
2023-04-09T12:28:13.478Z,6.57
2023-04-09T12:30:41.574Z,6.72
2023-04-09T12:33:10.928Z,7.13
2023-04-09T12:35:39.102Z,6.60
2023-04-09T12:38:07.876Z,6.40
2023-04-09T12:40:35.818Z,5.90
2023-04-09T12:43:03.345Z,6.30
2023-04-09T12:45:30.741Z,6.32
2023-04-09T12:47:58.595Z,6.57
2023-04-09T12:50:25.924Z,6.63
2023-04-09T12:52:53.248Z,6.07
2023-04-09T12:55:21.840Z,6.38
2023-04-09T12:57:50.516Z,6.47
2023-04-09T13:00:17.727Z,6.82
2023-04-09T13:02:45.193Z,6.30
2023-04-09T13:05:12.488Z,6.30
2023-04-09T13:07:41.513Z,6.75
2023-04-09T13:10:10.519Z,5.95
2023-04-09T13:12:39.080Z,5.88
2023-04-09T13:15:07.172Z,5.57
2023-04-09T13:17:34.671Z,6.65
2023-04-09T13:20:02.018Z,5.65
2023-04-09T13:22:29.346Z,5.68
2023-04-09T13:24:56.839Z,5.68
2023-04-09T13:27:24.121Z,5.28
2023-04-09T13:29:52.728Z,6.13
2023-04-09T13:32:20.807Z,5.57
2023-04-09T13:34:48.041Z,5.50
2023-04-09T13:37:15.544Z,4.53
2023-04-09T13:39:42.968Z,5.65
2023-04-09T13:42:13.647Z,5.05
2023-04-09T13:44:41.687Z,4.82
2023-04-09T13:47:10.766Z,4.93
2023-04-09T13:49:37.992Z,5.03
2023-04-09T13:52:05.304Z,5.10
2023-04-09T13:54:32.635Z,5.22
2023-04-09T13:56:59.975Z,5.15
2023-04-09T13:59:27.220Z,5.38
2023-04-09T14:01:54.621Z,4.93
2023-04-09T14:04:23.388Z,5.43
2023-04-09T14:06:50.648Z,5.28
2023-04-09T14:09:17.842Z,4.95
2023-04-09T14:11:44.999Z,5.05
2023-04-09T14:14:12.238Z,4.68
2023-04-09T14:16:39.640Z,4.38
2023-04-09T14:19:06.902Z,4.70
2023-04-09T14:21:35.559Z,4.40
2023-04-09T14:24:02.747Z,4.63
2023-04-09T14:26:29.993Z,4.90
2023-04-09T14:28:57.164Z,4.80
2023-04-09T14:31:24.455Z,4.53
2023-04-09T14:33:51.625Z,4.43
2023-04-09T14:36:18.804Z,5.00
2023-04-09T14:38:47.398Z,4.70
2023-04-09T14:41:14.654Z,5.35
2023-04-09T14:43:41.791Z,4.68
2023-04-09T14:46:09.152Z,5.45
2023-04-09T14:48:36.393Z,4.80
2023-04-09T14:51:04.013Z,5.10
2023-04-09T14:53:31.268Z,4.65
2023-04-09T14:55:59.834Z,5.00
2023-04-09T14:58:27.062Z,5.03
2023-04-09T15:00:54.219Z,5.53
2023-04-09T15:03:21.538Z,4.90
2023-04-09T15:05:48.894Z,5.57
2023-04-09T15:08:16.098Z,5.03
2023-04-09T15:10:43.241Z,4.43
2023-04-09T15:13:11.798Z,5.13
2023-04-09T15:15:40.295Z,4.63
2023-04-09T15:18:07.477Z,4.82
2023-04-09T15:20:36.576Z,5.22
2023-04-09T15:23:03.821Z,5.22
2023-04-09T15:25:31.031Z,4.80
2023-04-09T15:27:58.504Z,4.75
2023-04-09T15:30:27.282Z,4.82
2023-04-09T15:32:54.570Z,4.82
2023-04-09T15:35:21.988Z,4.72
2023-04-09T15:37:49.398Z,4.75
2023-04-09T15:40:17.108Z,4.82
2023-04-09T15:42:59.162Z,4.82
2023-04-09T15:45:27.715Z,5.05
2023-04-09T15:47:54.976Z,4.80
2023-04-09T15:50:22.422Z,4.00
2023-04-09T15:52:49.604Z,5.25
2023-04-09T15:55:17.059Z,4.90
2023-04-09T15:57:44.369Z,5.72
2023-04-09T16:00:12.400Z,4.57
2023-04-09T16:02:40.948Z,4.53
2023-04-09T16:05:08.273Z,5.05
2023-04-09T16:07:35.510Z,4.90
2023-04-09T16:10:02.742Z,4.50
2023-04-09T16:12:30.002Z,4.07
2023-04-09T16:14:57.243Z,4.57
2023-04-09T16:17:24.553Z,4.22
2023-04-09T16:19:53.170Z,5.15
2023-04-09T16:22:20.420Z,4.75
2023-04-09T16:24:47.708Z,5.05
2023-04-09T16:27:14.896Z,4.90
2023-04-09T16:29:42.424Z,12.57
2023-04-09T16:32:09.666Z,11.38
2023-04-09T16:34:36.856Z,65.30
2023-04-09T16:37:05.452Z,6.80
2023-04-09T16:39:32.775Z,7.50
2023-04-09T16:41:59.944Z,4.82
2023-04-09T16:44:27.262Z,5.28
2023-04-09T16:46:54.477Z,4.25
2023-04-09T16:49:21.774Z,4.00
2023-04-09T16:51:49.062Z,4.18
2023-04-09T16:54:17.674Z,3.95
2023-04-09T16:56:44.921Z,4.03
2023-04-09T16:59:12.126Z,3.90
2023-04-09T17:01:39.361Z,3.83
2023-04-09T17:04:06.694Z,3.83
2023-04-09T17:06:34.059Z,3.80
2023-04-09T17:09:01.445Z,4.10
2023-04-09T17:11:30.029Z,4.40
2023-04-09T17:13:57.202Z,4.80
2023-04-09T17:16:24.500Z,4.88
2023-04-09T17:18:51.852Z,4.05
2023-04-09T17:21:19.246Z,4.15
2023-04-09T17:23:46.408Z,3.83
2023-04-09T17:26:13.610Z,4.15
2023-04-09T17:28:42.161Z,3.95
2023-04-09T17:31:13.033Z,3.97
2023-04-09T17:33:40.346Z,4.43
2023-04-09T17:36:07.941Z,3.88
2023-04-09T17:38:35.127Z,4.35
2023-04-09T17:41:02.333Z,4.20
2023-04-09T17:43:29.530Z,4.32
2023-04-09T17:45:58.134Z,3.92
2023-04-09T17:48:25.312Z,4.53
2023-04-09T17:50:52.546Z,4.13
2023-04-09T17:53:20.508Z,4.18
2023-04-09T17:55:48.162Z,4.07
2023-04-09T17:58:15.472Z,4.30
2023-04-09T18:00:42.758Z,4.10
2023-04-09T18:03:12.093Z,4.53
2023-04-09T18:05:39.647Z,3.90
2023-04-09T18:08:07.109Z,4.22
2023-04-09T18:10:34.349Z,4.10
2023-04-09T18:13:01.508Z,4.20
2023-04-09T18:15:28.713Z,3.92
2023-04-09T18:17:55.989Z,3.88
2023-04-09T18:20:24.824Z,4.45
2023-04-09T18:22:52.037Z,4.22
2023-04-09T18:25:19.339Z,4.10
2023-04-09T18:27:46.482Z,4.28
2023-04-09T18:30:13.943Z,4.15
2023-04-09T18:32:41.168Z,3.83
2023-04-09T18:35:09.458Z,4.88
2023-04-09T18:37:38.087Z,4.38
2023-04-09T18:40:06.932Z,4.28
2023-04-09T18:42:34.064Z,3.80
2023-04-09T18:45:01.243Z,4.47
2023-04-09T18:47:28.447Z,4.32
2023-04-09T18:49:55.636Z,3.92
2023-04-09T18:52:22.836Z,3.92
2023-04-09T18:54:51.372Z,4.28
2023-04-09T18:57:18.955Z,4.30
2023-04-09T18:59:46.555Z,4.30
2023-04-09T19:02:13.957Z,4.45
2023-04-09T19:04:41.214Z,4.20
2023-04-09T19:07:08.473Z,3.97
2023-04-09T19:09:35.639Z,4.43
2023-04-09T19:12:04.744Z,4.28
2023-04-09T19:14:31.924Z,5.18
2023-04-09T19:16:59.199Z,5.00
2023-04-09T19:19:26.435Z,4.72
2023-04-09T19:21:53.610Z,4.20
2023-04-09T19:24:20.808Z,4.47
2023-04-09T19:26:47.986Z,4.68
2023-04-09T19:29:16.491Z,4.18
2023-04-09T19:31:43.795Z,4.57
2023-04-09T19:34:11.037Z,5.07
2023-04-09T19:36:38.362Z,4.30
2023-04-09T19:39:05.562Z,4.70
2023-04-09T19:41:32.710Z,4.60
2023-04-09T19:44:00.052Z,4.25
2023-04-09T19:46:28.711Z,4.68
2023-04-09T19:48:55.987Z,4.78
2023-04-09T19:51:23.187Z,4.00
2023-04-09T19:53:50.412Z,4.40
2023-04-09T19:56:18.343Z,4.35
2023-04-09T19:58:45.553Z,5.00
2023-04-09T20:01:12.773Z,4.65
2023-04-09T20:03:41.344Z,4.43
2023-04-09T20:06:10.075Z,4.57
2023-04-09T20:08:37.615Z,4.18
2023-04-09T20:11:05.146Z,4.55
2023-04-09T20:13:32.415Z,4.75
2023-04-09T20:15:59.662Z,4.38
2023-04-09T20:18:26.884Z,4.80
2023-04-09T20:20:55.413Z,4.80
2023-04-09T20:23:22.600Z,4.47
2023-04-09T20:25:53.290Z,4.97
2023-04-09T20:28:20.590Z,5.10
2023-04-09T20:30:47.778Z,5.22
2023-04-09T20:33:14.953Z,5.20
2023-04-09T20:35:42.257Z,5.55
2023-04-09T20:38:10.869Z,5.50
2023-04-09T20:40:38.109Z,5.32
2023-04-09T20:43:05.296Z,5.15
2023-04-09T20:45:32.519Z,4.35
2023-04-09T20:47:59.763Z,4.85
2023-04-09T20:50:27.031Z,4.95
2023-04-09T20:52:54.259Z,4.75
2023-04-09T20:55:23.298Z,5.15
2023-04-09T20:57:50.601Z,5.18
2023-04-09T21:00:18.005Z,5.10
2023-04-09T21:02:45.244Z,5.43
2023-04-09T21:05:22.607Z,5.63
2023-04-09T21:07:51.875Z,5.40
2023-04-09T21:10:19.103Z,5.18
2023-04-09T21:12:47.670Z,5.00
2023-04-09T21:15:15.055Z,5.53
2023-04-09T21:17:42.344Z,5.32
2023-04-09T21:20:10.402Z,5.32
2023-04-09T21:22:37.563Z,4.78
2023-04-09T21:25:05.736Z,6.05
2023-04-09T21:27:33.002Z,5.60
2023-04-09T21:30:01.471Z,5.10
2023-04-09T21:32:28.681Z,5.32
2023-04-09T21:34:55.843Z,5.20
2023-04-09T21:37:23.884Z,5.63
2023-04-09T21:39:51.079Z,5.22
2023-04-09T21:42:18.232Z,5.82
2023-04-09T21:44:45.441Z,5.35
2023-04-09T21:47:13.953Z,5.75
2023-04-09T21:49:41.111Z,6.10
2023-04-09T21:52:08.420Z,5.22
2023-04-09T21:54:35.577Z,5.90
2023-04-09T21:57:02.791Z,5.57
2023-04-09T21:59:29.938Z,5.82
2023-04-09T22:01:57.316Z,6.32
2023-04-09T22:04:25.929Z,5.80
2023-04-09T22:06:53.110Z,6.60
2023-04-09T22:09:20.293Z,5.97
2023-04-09T22:11:47.542Z,6.88
2023-04-09T22:14:14.735Z,7.32
2023-04-09T22:16:42.012Z,7.38
2023-04-09T22:19:09.198Z,6.30
2023-04-09T22:21:37.716Z,6.32
2023-04-09T22:24:04.942Z,5.63
2023-04-09T22:26:32.335Z,5.72
2023-04-09T22:28:59.516Z,6.13
2023-04-09T22:31:27.207Z,5.00
2023-04-09T22:33:54.444Z,5.38
2023-04-09T22:36:21.696Z,5.40
2023-04-09T22:38:50.267Z,6.00
2023-04-09T22:41:17.548Z,6.07
2023-04-09T22:43:44.879Z,7.90
2023-04-09T22:46:12.208Z,7.72
2023-04-09T22:48:44.609Z,9.20
2023-04-09T22:51:12.466Z,8.95
2023-04-09T22:53:39.839Z,8.70
2023-04-09T22:56:08.783Z,8.07
2023-04-09T22:58:36.056Z,7.70
2023-04-09T23:01:03.552Z,9.18
2023-04-09T23:03:30.817Z,7.40
2023-04-09T23:05:58.057Z,6.15
2023-04-09T23:08:25.313Z,5.65
2023-04-09T23:10:52.488Z,6.90
2023-04-09T23:13:21.198Z,7.20
2023-04-09T23:15:48.467Z,5.90
2023-04-09T23:18:15.695Z,5.70
2023-04-09T23:20:42.907Z,6.18
2023-04-09T23:23:10.122Z,5.70
2023-04-09T23:25:37.319Z,5.32
2023-04-09T23:28:04.477Z,6.55
2023-04-09T23:30:33.078Z,7.22
2023-04-09T23:33:00.255Z,5.93
2023-04-09T23:35:27.602Z,6.10
2023-04-09T23:37:54.785Z,8.23
2023-04-09T23:40:22.242Z,8.35
2023-04-09T23:42:49.405Z,8.00
2023-04-09T23:45:16.626Z,7.55
2023-04-09T23:47:45.147Z,7.78
2023-04-09T23:50:12.466Z,8.15
2023-04-09T23:52:39.785Z,7.47
2023-04-09T23:55:07.816Z,6.95
2023-04-09T23:57:35.029Z,7.00
